Maidenhead, United Kingdom
Current Conditions -  °F | °C
As of 6:20 AM on Friday 31 Oct 2014 (Local Time) from EGLL Reporting Station
Haze Haze  
Wind Chill: 57°   Ceiling: Unl
Heat Index: 57°   Visibility: 2.3mi
Dew Point: 55°   Wind: 5mph
Humidity: 94%   Direction: 180°S
Pressure: 30.03"   Gusts: NA
Location:  51.52°N, 0.72°W
Report Text: EGLL 310620Z 18004KT 130V280 3800 BR NSC 14/13 Q1017 NOSIG
Loading
Personal Weather Stations






























Interactive Weather Map
Tropical Storm Tracking
New forecast layout! Learn more

10-Day Weather Forecast

Advertisements
Track Severe Weather on mobile